Terminal Aerodrome Forecast
Issued by NWS Sterling, VA

Current Version | Previous Version | Text Only | Print | Product List | Glossary Off
Versions: 1 2 3 4 5 6 7 8 9 10 11 12 13 14 15 16 17 18 19 20 21 22 23 24 25 26

000
FTUS41 KLWX 231744
TAFIAD
TAF
KIAD 231744Z 2318/2424 09007KT P6SM -SHRA OVC040
     FM232000 08007KT P6SM -RA OVC025
     FM240400 07006KT 5SM BR OVC025
     FM240800 VRB03KT 5SM BR OVC015
     FM241300 VRB03KT P6SM OVC035
     FM241900 13007KT P6SM BKN045=

USA.gov is the U.S. government's official web portal to all federal, state and local government web resources and services.